createdAt,value
2022-08-20T00:02:16.898Z,6.10
2022-08-20T00:04:45.560Z,7.40
2022-08-20T00:07:16.419Z,6.67
2022-08-20T00:09:45.520Z,7.53
2022-08-20T00:12:17.621Z,6.10
2022-08-20T00:14:47.482Z,7.20
2022-08-20T00:17:16.499Z,7.13
2022-08-20T00:19:44.874Z,6.67
2022-08-20T00:22:13.654Z,6.67
2022-08-20T00:24:42.091Z,6.40
2022-08-20T00:27:11.329Z,6.23
2022-08-20T00:29:39.687Z,6.73
2022-08-20T00:32:09.551Z,7.23
2022-08-20T00:34:38.024Z,7.95
2022-08-20T00:37:07.005Z,7.40
2022-08-20T00:39:35.775Z,7.73
2022-08-20T00:42:04.929Z,7.67
2022-08-20T00:44:33.649Z,7.70
2022-08-20T00:47:02.370Z,7.87
2022-08-20T00:49:34.257Z,7.90
2022-08-20T00:52:09.164Z,7.70
2022-08-20T00:54:43.069Z,7.93
2022-08-20T00:57:19.390Z,9.60
2022-08-20T00:59:50.713Z,9.70
2022-08-20T01:02:22.558Z,8.20
2022-08-20T01:04:54.645Z,8.97
2022-08-20T01:07:32.501Z,9.20
2022-08-20T01:10:01.840Z,9.73
2022-08-20T01:12:31.386Z,10.50
2022-08-20T01:15:03.783Z,9.47
2022-08-20T01:17:37.084Z,8.97
2022-08-20T01:20:12.535Z,8.63
2022-08-20T01:23:04.095Z,8.90
2022-08-20T01:25:43.365Z,8.93
2022-08-20T01:28:12.920Z,9.37
2022-08-20T01:30:41.508Z,9.87
2022-08-20T01:33:10.662Z,9.40
2022-08-20T01:35:42.603Z,9.73
2022-08-20T01:38:13.718Z,10.00
2022-08-20T01:41:37.537Z,9.47
2022-08-20T01:44:06.120Z,9.87
2022-08-20T01:46:43.961Z,9.90
2022-08-20T01:49:22.914Z,8.50
2022-08-20T01:51:53.807Z,9.63
2022-08-20T01:54:22.798Z,10.00
2022-08-20T01:57:01.574Z,9.20
2022-08-20T01:59:31.088Z,9.60
2022-08-20T02:02:00.338Z,9.20
2022-08-20T02:04:28.808Z,9.43
2022-08-20T02:07:01.322Z,10.57
2022-08-20T02:09:33.756Z,8.90
2022-08-20T02:12:06.884Z,9.53
2022-08-20T02:14:37.011Z,8.50
2022-08-20T02:17:07.218Z,10.07
2022-08-20T02:19:40.039Z,9.63
2022-08-20T02:22:19.367Z,9.53
2022-08-20T02:24:48.293Z,10.07
2022-08-20T02:27:18.797Z,8.77
2022-08-20T02:29:47.414Z,8.20
2022-08-20T02:32:24.546Z,9.10
2022-08-20T02:35:03.829Z,9.80
2022-08-20T02:37:32.681Z,9.93
2022-08-20T02:40:01.059Z,9.97
2022-08-20T02:42:30.845Z,9.37
2022-08-20T02:44:59.337Z,9.17
2022-08-20T02:47:28.780Z,9.07
2022-08-20T02:49:59.373Z,9.10
2022-08-20T02:52:27.789Z,10.47
2022-08-20T02:54:56.044Z,10.73
2022-08-20T02:57:24.462Z,11.20
2022-08-20T02:59:54.138Z,11.70
2022-08-20T03:02:22.456Z,10.47
2022-08-20T03:04:50.784Z,11.53
2022-08-20T03:07:19.320Z,12.50
2022-08-20T03:09:47.704Z,11.57
2022-08-20T03:12:16.441Z,12.23
2022-08-20T03:14:44.816Z,11.77
2022-08-20T03:17:14.595Z,12.30
2022-08-20T03:19:42.863Z,12.80
2022-08-20T03:22:11.147Z,12.00
2022-08-20T03:24:39.445Z,12.40
2022-08-20T03:27:07.834Z,12.50
2022-08-20T03:29:36.936Z,11.30
2022-08-20T03:32:07.800Z,10.80
2022-08-20T03:34:37.649Z,11.40
2022-08-20T03:37:06.231Z,11.47
2022-08-20T03:39:34.877Z,11.97
2022-08-20T03:42:03.647Z,11.30
2022-08-20T03:44:32.182Z,12.83
2022-08-20T03:47:00.568Z,12.30
2022-08-20T03:49:29.226Z,12.37
2022-08-20T03:51:59.086Z,12.63
2022-08-20T03:54:31.954Z,10.00
2022-08-20T03:57:02.331Z,12.00
2022-08-20T03:59:33.063Z,12.60
2022-08-20T04:02:01.930Z,11.50
2022-08-20T04:04:30.484Z,10.53
2022-08-20T04:07:00.393Z,11.20
2022-08-20T04:09:30.081Z,11.80
2022-08-20T04:12:00.982Z,10.13
2022-08-20T04:14:29.444Z,10.07
2022-08-20T04:16:58.823Z,10.70
2022-08-20T04:19:31.216Z,11.43
2022-08-20T04:22:03.852Z,9.90
2022-08-20T04:24:32.888Z,9.73
2022-08-20T04:27:04.364Z,9.53
2022-08-20T04:29:35.503Z,10.00
2022-08-20T04:32:06.016Z,9.73
2022-08-20T04:34:35.855Z,10.80
2022-08-20T04:37:17.200Z,9.13
2022-08-20T04:40:06.963Z,8.40
2022-08-20T04:42:39.222Z,8.90
2022-08-20T04:45:09.765Z,9.63
2022-08-20T04:47:38.070Z,9.03
2022-08-20T04:50:10.524Z,8.83
2022-08-20T04:52:40.894Z,9.40
2022-08-20T04:55:11.537Z,8.07
2022-08-20T04:57:41.133Z,8.80
2022-08-20T05:00:14.384Z,8.43
2022-08-20T05:02:43.192Z,8.03
2022-08-20T05:05:13.484Z,8.20
2022-08-20T05:07:46.835Z,8.03
2022-08-20T05:10:18.528Z,7.80
2022-08-20T05:12:56.667Z,6.73
2022-08-20T05:15:26.348Z,6.60
2022-08-20T05:18:00.627Z,6.90
2022-08-20T05:20:32.206Z,6.10
2022-08-20T05:23:03.654Z,7.13
2022-08-20T05:25:33.026Z,7.20
2022-08-20T05:28:03.455Z,7.20
2022-08-20T05:30:34.233Z,10.07
2022-08-20T05:33:04.857Z,9.80
2022-08-20T05:35:38.565Z,9.17
2022-08-20T05:38:14.005Z,8.80
2022-08-20T05:40:43.866Z,10.13
2022-08-20T05:43:13.438Z,9.77
2022-08-20T05:45:44.972Z,10.57
2022-08-20T05:48:16.030Z,9.70
2022-08-20T05:50:49.183Z,8.93
2022-08-20T05:53:20.322Z,8.77
2022-08-20T05:55:49.448Z,9.60
2022-08-20T05:58:21.036Z,8.83
2022-08-20T06:00:51.777Z,9.80
2022-08-20T06:03:37.951Z,9.03
2022-08-20T06:06:17.841Z,9.30
2022-08-20T06:08:48.270Z,8.57
2022-08-20T06:11:16.691Z,8.87
2022-08-20T06:13:44.960Z,8.60
2022-08-20T06:16:13.309Z,9.00
2022-08-20T06:18:41.824Z,8.70
2022-08-20T06:21:11.074Z,8.80
2022-08-20T06:23:54.388Z,9.20
2022-08-20T06:26:30.009Z,9.50
2022-08-20T06:29:00.398Z,9.73
2022-08-20T06:31:29.138Z,9.50
2022-08-20T06:33:57.965Z,9.83
2022-08-20T06:36:27.411Z,9.23
2022-08-20T06:38:58.438Z,10.10
2022-08-20T06:41:35.853Z,10.13
2022-08-20T06:44:05.573Z,10.00
2022-08-20T06:46:34.222Z,11.17
2022-08-20T06:49:03.517Z,11.30
2022-08-20T06:51:31.920Z,11.60
2022-08-20T06:54:00.418Z,12.30
2022-08-20T06:56:30.602Z,11.40
2022-08-20T06:58:59.022Z,12.50
2022-08-20T07:01:27.450Z,11.27
2022-08-20T07:03:59.562Z,10.93
2022-08-20T07:06:28.285Z,10.37
2022-08-20T07:08:57.095Z,10.87
2022-08-20T07:11:28.220Z,9.90
2022-08-20T07:13:59.421Z,8.80
2022-08-20T07:16:28.388Z,8.83
2022-08-20T07:18:58.261Z,9.23
2022-08-20T07:21:26.756Z,8.00
2022-08-20T07:23:55.122Z,8.73
2022-08-20T07:26:24.000Z,8.57
2022-08-20T07:28:52.382Z,7.97
2022-08-20T07:31:39.694Z,9.93
2022-08-20T07:34:11.675Z,7.97
2022-08-20T07:36:40.409Z,8.80
2022-08-20T07:39:11.839Z,7.93
2022-08-20T07:41:40.167Z,7.40
2022-08-20T07:44:09.121Z,9.33
2022-08-20T07:46:38.989Z,7.60
2022-08-20T07:49:09.638Z,7.13
2022-08-20T07:51:38.009Z,6.90
2022-08-20T07:54:07.113Z,5.50
2022-08-20T07:56:35.545Z,5.50
2022-08-20T07:59:05.244Z,5.03
2022-08-20T08:01:34.297Z,4.87
2022-08-20T08:04:04.533Z,4.30
2022-08-20T08:06:33.643Z,3.70
2022-08-20T08:09:07.218Z,3.40
2022-08-20T08:11:39.166Z,2.93
2022-08-20T08:14:11.391Z,3.20
2022-08-20T08:16:40.159Z,3.10
2022-08-20T08:19:14.351Z,2.27
2022-08-20T08:21:44.670Z,2.13
2022-08-20T08:24:17.965Z,2.60
2022-08-20T08:26:50.038Z,2.17
2022-08-20T08:29:18.640Z,1.70
2022-08-20T08:31:47.054Z,2.00
2022-08-20T08:34:16.889Z,2.30
2022-08-20T08:36:45.470Z,1.83
2022-08-20T08:39:13.810Z,1.90
2022-08-20T08:41:49.778Z,2.23
2022-08-20T08:44:23.364Z,1.83
2022-08-20T08:46:56.701Z,2.47
2022-08-20T08:49:37.734Z,2.10
2022-08-20T08:52:14.688Z,1.60
2022-08-20T08:54:47.728Z,1.70
2022-08-20T08:57:16.669Z,1.67
2022-08-20T08:59:58.275Z,1.70
2022-08-20T09:02:36.516Z,1.67
2022-08-20T09:05:17.808Z,1.90
2022-08-20T09:07:53.112Z,1.30
2022-08-20T09:10:23.081Z,1.73
2022-08-20T09:12:52.314Z,1.37
2022-08-20T09:15:22.203Z,1.83
2022-08-20T09:17:51.891Z,1.50
2022-08-20T09:20:26.887Z,1.50
2022-08-20T09:22:55.950Z,2.00
2022-08-20T09:25:25.513Z,1.20
2022-08-20T09:27:53.914Z,1.50
2022-08-20T09:30:23.168Z,1.93
2022-08-20T09:32:51.909Z,1.33
2022-08-20T09:35:21.787Z,1.37
2022-08-20T09:37:50.976Z,1.67
2022-08-20T09:40:21.338Z,1.60
2022-08-20T09:42:50.869Z,1.67
2022-08-20T09:45:20.315Z,1.83
2022-08-20T09:47:56.559Z,1.60
2022-08-20T09:50:27.912Z,1.50
2022-08-20T09:52:58.801Z,1.70
2022-08-20T09:55:34.609Z,1.50
2022-08-20T09:58:07.336Z,1.77
2022-08-20T10:00:36.095Z,1.40
2022-08-20T10:03:04.419Z,1.60
2022-08-20T10:05:34.174Z,1.33
2022-08-20T10:08:06.354Z,1.27
2022-08-20T10:10:34.687Z,1.60
2022-08-20T10:13:03.565Z,1.40
2022-08-20T10:15:32.858Z,1.53
2022-08-20T10:18:07.572Z,1.40
2022-08-20T10:20:37.426Z,2.10
2022-08-20T10:23:06.538Z,1.50
2022-08-20T10:25:35.065Z,1.90
2022-08-20T10:28:03.829Z,1.60
2022-08-20T10:30:32.133Z,1.40
2022-08-20T10:33:00.665Z,1.83
2022-08-20T10:35:29.309Z,2.20
2022-08-20T10:37:59.216Z,1.37
2022-08-20T10:40:28.003Z,1.43
2022-08-20T10:42:56.349Z,1.93
2022-08-20T10:45:25.852Z,2.10
2022-08-20T10:47:54.131Z,1.40
2022-08-20T10:50:22.716Z,1.70
2022-08-20T10:52:51.074Z,1.87
2022-08-20T10:55:21.076Z,1.70
2022-08-20T10:57:49.722Z,1.90
2022-08-20T11:00:20.227Z,1.70
2022-08-20T11:02:48.705Z,1.70
2022-08-20T11:05:17.093Z,1.70
2022-08-20T11:07:50.723Z,2.33
2022-08-20T11:10:27.737Z,1.57
2022-08-20T11:12:56.593Z,1.70
2022-08-20T11:15:25.119Z,2.63
2022-08-20T11:17:54.209Z,1.50
2022-08-20T11:20:25.577Z,1.50
2022-08-20T11:22:54.317Z,1.60
2022-08-20T11:25:22.945Z,1.67
2022-08-20T11:27:54.363Z,1.40
2022-08-20T11:30:27.140Z,1.77
2022-08-20T11:32:55.743Z,1.30
2022-08-20T11:35:42.295Z,1.60
2022-08-20T11:38:13.534Z,2.00
2022-08-20T11:40:41.942Z,1.80
2022-08-20T11:43:16.250Z,4.30
2022-08-20T11:45:47.373Z,1.90
2022-08-20T11:48:15.848Z,1.57
2022-08-20T11:50:44.874Z,2.27
2022-08-20T11:53:13.619Z,1.73
2022-08-20T11:55:43.901Z,1.50
2022-08-20T11:58:13.721Z,1.90
2022-08-20T12:00:42.567Z,1.87
2022-08-20T12:03:12.236Z,2.23
2022-08-20T12:05:45.044Z,2.00
2022-08-20T12:08:26.487Z,1.90
2022-08-20T12:10:58.758Z,1.50
2022-08-20T12:13:47.187Z,2.33
2022-08-20T12:16:17.781Z,2.17
2022-08-20T12:18:46.838Z,1.93
2022-08-20T12:21:15.671Z,1.60
2022-08-20T12:23:44.732Z,2.20
2022-08-20T12:26:13.374Z,2.03
2022-08-20T12:28:43.636Z,1.93
2022-08-20T12:31:12.159Z,2.20
2022-08-20T12:33:40.656Z,2.97
2022-08-20T12:36:10.940Z,2.57
2022-08-20T12:38:39.325Z,2.27
2022-08-20T12:41:07.820Z,1.80
2022-08-20T12:43:36.486Z,1.70
2022-08-20T12:46:06.517Z,3.07
2022-08-20T12:48:34.855Z,2.00
2022-08-20T12:51:03.572Z,2.10
2022-08-20T12:53:31.869Z,1.83
2022-08-20T12:56:02.463Z,2.57
2022-08-20T12:58:30.771Z,1.83
2022-08-20T13:00:59.112Z,1.83
2022-08-20T13:03:28.987Z,2.17
2022-08-20T13:06:03.020Z,2.00
2022-08-20T13:08:31.503Z,2.00
2022-08-20T13:10:59.911Z,1.80
2022-08-20T13:13:28.373Z,1.90
2022-08-20T13:15:56.653Z,2.40
2022-08-20T13:18:25.063Z,2.00
2022-08-20T13:20:54.815Z,2.20
2022-08-20T13:23:23.281Z,1.63
2022-08-20T13:25:51.652Z,1.83
2022-08-20T13:28:19.993Z,2.00
2022-08-20T13:30:48.473Z,2.17
2022-08-20T13:33:17.129Z,2.00
2022-08-20T13:35:46.433Z,1.97
2022-08-20T13:38:16.102Z,1.90
2022-08-20T13:40:44.710Z,1.73
2022-08-20T13:43:17.399Z,1.50
2022-08-20T13:45:46.103Z,1.90
2022-08-20T13:48:15.122Z,1.83
2022-08-20T13:50:47.361Z,1.90
2022-08-20T13:53:17.637Z,2.10
2022-08-20T13:55:47.138Z,1.67
2022-08-20T13:58:15.728Z,1.57
2022-08-20T14:00:46.886Z,1.80
2022-08-20T14:03:19.987Z,1.93
2022-08-20T14:05:53.855Z,1.90
2022-08-20T14:08:25.336Z,1.80
2022-08-20T14:10:54.028Z,2.03
2022-08-20T14:13:24.860Z,1.60
2022-08-20T14:15:53.693Z,1.73
2022-08-20T14:18:22.149Z,1.67
2022-08-20T14:20:50.583Z,2.00
2022-08-20T14:23:19.014Z,1.70
2022-08-20T14:25:50.489Z,2.17
2022-08-20T14:28:21.721Z,1.77
2022-08-20T14:30:53.532Z,2.03
2022-08-20T14:33:23.611Z,1.87
2022-08-20T14:35:52.459Z,2.23
2022-08-20T14:38:20.739Z,1.73
2022-08-20T14:40:50.844Z,1.80
2022-08-20T14:43:19.609Z,1.50
2022-08-20T14:45:48.175Z,1.43
2022-08-20T14:48:16.635Z,1.50
2022-08-20T14:50:44.988Z,1.57
2022-08-20T14:53:13.416Z,1.43
2022-08-20T14:55:42.060Z,1.60
2022-08-20T14:58:14.149Z,1.20
2022-08-20T15:00:43.924Z,1.93
2022-08-20T15:03:13.551Z,1.73
2022-08-20T15:05:42.100Z,1.30
2022-08-20T15:08:12.626Z,1.47
2022-08-20T15:10:42.041Z,1.47
2022-08-20T15:13:12.002Z,1.60
2022-08-20T15:15:40.692Z,1.30
2022-08-20T15:18:09.408Z,1.43
2022-08-20T15:20:38.710Z,1.27
2022-08-20T15:23:07.281Z,1.57
2022-08-20T15:25:38.134Z,1.40
2022-08-20T15:28:09.383Z,1.50
2022-08-20T15:30:41.664Z,1.20
2022-08-20T15:33:12.265Z,1.50
2022-08-20T15:35:40.654Z,1.60
2022-08-20T15:38:09.346Z,1.20
2022-08-20T15:40:38.612Z,1.60
2022-08-20T15:43:07.334Z,1.40
2022-08-20T15:45:37.964Z,1.10
2022-08-20T15:48:13.556Z,1.30
2022-08-20T15:51:22.582Z,1.30
2022-08-20T15:54:02.958Z,1.70
2022-08-20T15:56:55.323Z,1.27
2022-08-20T15:59:46.416Z,1.67
2022-08-20T16:02:40.188Z,1.20
2022-08-20T16:05:20.540Z,1.33
2022-08-20T16:08:03.204Z,1.53
2022-08-20T16:10:43.806Z,1.50
2022-08-20T16:13:35.701Z,1.43
2022-08-20T16:16:05.127Z,1.50
2022-08-20T16:18:38.797Z,1.30
2022-08-20T16:21:13.240Z,1.60
2022-08-20T16:23:43.810Z,1.17
2022-08-20T16:26:35.775Z,1.17
2022-08-20T16:29:11.682Z,1.30
2022-08-20T16:31:49.923Z,1.30
2022-08-20T16:34:34.334Z,1.30
2022-08-20T16:37:12.384Z,1.33
2022-08-20T16:39:49.729Z,1.50
2022-08-20T16:42:25.792Z,1.63
2022-08-20T16:44:56.463Z,1.20
2022-08-20T16:47:30.500Z,1.23
2022-08-20T16:50:05.856Z,1.37
2022-08-20T16:52:34.531Z,1.20
2022-08-20T16:55:02.990Z,1.40
2022-08-20T16:57:31.399Z,1.70
2022-08-20T17:00:11.974Z,1.70
2022-08-20T17:02:52.210Z,1.53
2022-08-20T17:05:22.769Z,1.10
2022-08-20T17:07:54.622Z,1.53
2022-08-20T17:10:29.543Z,1.50
2022-08-20T17:13:04.315Z,1.47
2022-08-20T17:15:35.778Z,1.27
2022-08-20T17:18:21.967Z,1.20
2022-08-20T17:20:52.745Z,1.00
2022-08-20T17:23:22.762Z,1.40
2022-08-20T17:25:59.985Z,1.50
2022-08-20T17:28:34.979Z,1.50
2022-08-20T17:31:03.989Z,1.30
2022-08-20T17:33:36.039Z,1.50
2022-08-20T17:36:12.088Z,1.30
2022-08-20T17:38:48.773Z,1.60
2022-08-20T17:41:24.771Z,1.50
2022-08-20T17:44:00.115Z,1.30
2022-08-20T17:46:31.491Z,1.30
2022-08-20T17:49:03.088Z,1.43
2022-08-20T17:51:51.538Z,1.40
2022-08-20T17:54:27.094Z,1.60
2022-08-20T17:57:01.416Z,1.50
2022-08-20T18:00:00.599Z,1.50
2022-08-20T18:02:22.667Z,1.40
2022-08-20T18:04:52.586Z,1.80
2022-08-20T18:07:27.314Z,1.70
2022-08-20T18:10:03.307Z,1.80
2022-08-20T18:12:38.247Z,2.23
2022-08-20T18:15:13.025Z,1.60
2022-08-20T18:18:17.032Z,1.57
2022-08-20T18:21:14.723Z,1.20
2022-08-20T18:23:48.891Z,1.67
2022-08-20T18:26:26.399Z,1.67
2022-08-20T18:29:00.432Z,1.30
2022-08-20T18:31:33.558Z,1.30
2022-08-20T18:34:13.655Z,2.13
2022-08-20T18:36:42.468Z,1.77
2022-08-20T18:39:26.101Z,1.37
2022-08-20T18:42:01.785Z,1.43
2022-08-20T18:44:39.549Z,1.60
2022-08-20T18:47:21.569Z,1.60
2022-08-20T18:50:06.593Z,1.60
2022-08-20T18:52:49.447Z,2.07
2022-08-20T18:55:32.473Z,2.03
2022-08-20T18:58:06.574Z,1.60
2022-08-20T19:00:42.421Z,1.43
2022-08-20T19:03:21.030Z,1.63
2022-08-20T19:06:25.350Z,1.83
2022-08-20T19:09:07.129Z,1.63
2022-08-20T19:12:33.036Z,1.80
2022-08-20T19:15:09.074Z,1.53
2022-08-20T19:17:52.970Z,1.63
2022-08-20T19:20:25.679Z,1.40
2022-08-20T19:23:02.203Z,1.40
2022-08-20T19:25:36.235Z,1.60
2022-08-20T19:28:18.217Z,1.50
2022-08-20T19:30:47.057Z,1.33
2022-08-20T19:33:15.562Z,1.70
2022-08-20T19:35:47.893Z,1.80
2022-08-20T19:38:17.528Z,1.60
2022-08-20T19:40:46.739Z,1.33
2022-08-20T19:43:22.296Z,2.10
2022-08-20T19:45:54.317Z,1.33
2022-08-20T19:48:40.430Z,1.53
2022-08-20T19:51:15.851Z,1.60
2022-08-20T19:53:47.924Z,1.43
2022-08-20T19:56:19.492Z,1.60
2022-08-20T19:59:02.028Z,1.80
2022-08-20T20:01:30.430Z,1.83
2022-08-20T20:04:02.588Z,1.43
2022-08-20T20:06:36.207Z,1.60
2022-08-20T20:09:08.809Z,1.90
2022-08-20T20:11:42.035Z,1.87
2022-08-20T20:14:14.889Z,1.70
2022-08-20T20:16:44.041Z,1.43
2022-08-20T20:19:30.155Z,1.50
2022-08-20T20:22:16.114Z,3.30
2022-08-20T20:24:57.991Z,2.47
2022-08-20T20:27:28.835Z,2.20
2022-08-20T20:30:02.677Z,2.40
2022-08-20T20:32:33.812Z,2.20
2022-08-20T20:35:06.480Z,2.53
2022-08-20T20:37:50.145Z,2.20
2022-08-20T20:40:26.724Z,2.43
2022-08-20T20:43:03.179Z,1.90
2022-08-20T20:45:37.683Z,2.07
2022-08-20T20:48:20.820Z,2.20
2022-08-20T20:50:51.014Z,2.03
2022-08-20T20:53:49.466Z,1.40
2022-08-20T20:56:36.439Z,1.90
2022-08-20T20:59:07.614Z,1.70
2022-08-20T21:01:48.740Z,1.60
2022-08-20T21:04:23.049Z,2.17
2022-08-20T21:06:53.676Z,1.47
2022-08-20T21:09:23.678Z,1.60
2022-08-20T21:11:52.180Z,1.57
2022-08-20T21:14:20.541Z,1.57
2022-08-20T21:16:50.361Z,1.67
2022-08-20T21:19:19.407Z,1.87
2022-08-20T21:21:47.760Z,1.60
2022-08-20T21:24:16.169Z,1.90
2022-08-20T21:26:45.201Z,2.33
2022-08-20T21:29:17.696Z,4.37
2022-08-20T21:31:47.447Z,2.67
2022-08-20T21:34:17.603Z,2.73
2022-08-20T21:36:46.854Z,1.93
2022-08-20T21:39:15.370Z,2.00
2022-08-20T21:41:45.537Z,2.17
2022-08-20T21:44:21.474Z,1.80
2022-08-20T21:46:50.692Z,1.83
2022-08-20T21:49:21.369Z,1.70
2022-08-20T21:51:51.153Z,1.77
2022-08-20T21:54:19.756Z,1.80
2022-08-20T21:56:53.820Z,1.87
2022-08-20T21:59:24.114Z,2.03
2022-08-20T22:01:53.063Z,2.27
2022-08-20T22:04:23.014Z,2.40
2022-08-20T22:06:51.433Z,2.60
2022-08-20T22:09:20.377Z,3.57
2022-08-20T22:11:56.483Z,2.97
2022-08-20T22:14:30.277Z,4.30
2022-08-20T22:16:58.812Z,3.80
2022-08-20T22:19:28.534Z,3.30
2022-08-20T22:21:58.173Z,3.87
2022-08-20T22:24:29.635Z,3.30
2022-08-20T22:26:58.234Z,3.10
2022-08-20T22:29:26.658Z,3.20
2022-08-20T22:31:55.744Z,3.80
2022-08-20T22:34:24.205Z,3.50
2022-08-20T22:36:55.712Z,3.07
2022-08-20T22:39:24.073Z,2.97
2022-08-20T22:41:53.098Z,3.03
2022-08-20T22:44:21.864Z,3.57
2022-08-20T22:46:55.562Z,3.30
2022-08-20T22:49:28.905Z,3.40
2022-08-20T22:51:59.089Z,3.60
2022-08-20T22:54:27.512Z,3.43
2022-08-20T22:56:56.231Z,2.80
2022-08-20T22:59:25.831Z,2.80
2022-08-20T23:01:54.733Z,2.70
2022-08-20T23:04:29.401Z,3.13
2022-08-20T23:07:00.446Z,3.37
2022-08-20T23:09:30.170Z,3.07
2022-08-20T23:11:58.723Z,3.40
2022-08-20T23:14:27.541Z,3.20
2022-08-20T23:17:02.815Z,2.80
2022-08-20T23:19:31.284Z,3.20
2022-08-20T23:22:00.975Z,3.07
2022-08-20T23:24:29.344Z,2.70
2022-08-20T23:26:58.273Z,3.60
2022-08-20T23:29:27.426Z,3.07
2022-08-20T23:31:57.041Z,3.10
2022-08-20T23:34:26.727Z,3.17
2022-08-20T23:36:56.749Z,3.00
2022-08-20T23:39:27.360Z,2.90
2022-08-20T23:41:55.816Z,2.90
2022-08-20T23:44:26.392Z,3.13
2022-08-20T23:46:57.822Z,2.67
2022-08-20T23:49:26.452Z,3.87
2022-08-20T23:51:54.920Z,2.87
2022-08-20T23:54:23.263Z,3.57
2022-08-20T23:56:53.060Z,3.93
2022-08-20T23:59:25.984Z,3.43
